createdAt,value
2022-12-23T00:00:19.608Z,1.00
2022-12-23T00:01:19.596Z,0.90
2022-12-23T00:02:19.697Z,0.90
2022-12-23T00:03:19.681Z,0.90
2022-12-23T00:04:19.684Z,0.90
2022-12-23T00:05:19.531Z,0.90
2022-12-23T00:06:19.522Z,0.80
2022-12-23T00:07:19.528Z,0.80
2022-12-23T00:08:19.497Z,0.80
2022-12-23T00:09:19.492Z,0.90
2022-12-23T00:10:19.472Z,0.70
2022-12-23T00:11:19.469Z,0.80
2022-12-23T00:12:19.443Z,0.70
2022-12-23T00:13:19.440Z,0.80
2022-12-23T00:14:21.947Z,1.10
2022-12-23T00:15:19.407Z,1.20
2022-12-23T00:16:19.467Z,1.20
2022-12-23T00:17:23.333Z,0.80
2022-12-23T00:18:19.366Z,0.90
2022-12-23T00:19:19.360Z,1.00
2022-12-23T00:20:19.342Z,0.90
2022-12-23T00:21:19.323Z,0.90
2022-12-23T00:22:19.320Z,1.30
2022-12-23T00:23:19.319Z,0.90
2022-12-23T00:24:19.290Z,1.00
2022-12-23T00:25:19.268Z,0.80
2022-12-23T00:26:19.260Z,0.80
2022-12-23T00:27:19.242Z,0.80
2022-12-23T00:28:19.241Z,0.70
2022-12-23T00:29:19.225Z,0.70
2022-12-23T00:30:19.206Z,0.90
2022-12-23T00:31:19.296Z,0.80
2022-12-23T00:32:19.273Z,0.80
2022-12-23T00:33:19.169Z,0.60
2022-12-23T00:34:19.151Z,0.70
2022-12-23T00:35:19.138Z,0.60
2022-12-23T00:36:19.269Z,0.80
2022-12-23T00:37:19.112Z,0.70
2022-12-23T00:38:19.104Z,0.70
2022-12-23T00:39:19.109Z,0.70
2022-12-23T00:40:19.074Z,0.60
2022-12-23T00:41:19.060Z,0.90
2022-12-23T00:42:19.045Z,0.70
2022-12-23T00:43:19.034Z,0.80
2022-12-23T00:44:19.022Z,0.70
2022-12-23T00:45:19.006Z,0.70
2022-12-23T00:46:19.102Z,0.70
2022-12-23T00:47:18.978Z,0.70
2022-12-23T00:48:18.970Z,0.80
2022-12-23T00:49:18.968Z,0.70
2022-12-23T00:50:18.942Z,0.70
2022-12-23T00:51:18.927Z,0.70
2022-12-23T00:52:18.917Z,0.70
2022-12-23T00:53:18.901Z,0.70
2022-12-23T00:54:18.890Z,1.00
2022-12-23T00:55:18.900Z,0.70
2022-12-23T00:56:18.878Z,0.60
2022-12-23T00:57:18.847Z,0.70
2022-12-23T00:58:18.839Z,0.70
2022-12-23T00:59:18.822Z,0.60
2022-12-23T01:00:18.813Z,0.60
2022-12-23T01:01:18.898Z,0.90
2022-12-23T01:02:18.890Z,0.60
2022-12-23T01:03:18.810Z,0.80
2022-12-23T01:04:18.759Z,0.60
2022-12-23T01:05:18.746Z,0.70
2022-12-23T01:06:18.736Z,0.70
2022-12-23T01:07:18.717Z,0.60
2022-12-23T01:08:18.710Z,0.70
2022-12-23T01:09:18.691Z,0.60
2022-12-23T01:10:18.686Z,0.70
2022-12-23T01:11:18.771Z,0.70
2022-12-23T01:12:18.663Z,0.70
2022-12-23T01:13:18.650Z,0.60
2022-12-23T01:14:18.628Z,0.70
2022-12-23T01:15:18.613Z,0.60
2022-12-23T01:16:18.645Z,0.70
2022-12-23T01:17:18.673Z,0.70
2022-12-23T01:18:18.579Z,0.70
2022-12-23T01:19:18.585Z,0.60
2022-12-23T01:20:18.549Z,0.60
2022-12-23T01:21:18.537Z,0.60
2022-12-23T01:22:18.524Z,0.70
2022-12-23T01:23:18.510Z,0.70
2022-12-23T01:24:18.501Z,0.60
2022-12-23T01:25:18.483Z,0.60
2022-12-23T01:26:18.474Z,0.60
2022-12-23T01:27:18.480Z,0.60
2022-12-23T01:28:18.442Z,0.70
2022-12-23T01:29:18.436Z,0.70
2022-12-23T01:30:18.425Z,0.80
2022-12-23T01:31:18.466Z,0.60
2022-12-23T01:32:18.504Z,0.60
2022-12-23T01:33:18.382Z,0.60
2022-12-23T01:34:18.365Z,0.60
2022-12-23T01:35:18.355Z,0.60
2022-12-23T01:36:18.338Z,0.50
2022-12-23T01:37:18.330Z,0.70
2022-12-23T01:38:18.311Z,0.60
2022-12-23T01:39:18.322Z,0.60
2022-12-23T01:40:18.286Z,0.70
2022-12-23T01:41:18.278Z,0.60
2022-12-23T01:42:18.323Z,0.60
2022-12-23T01:43:18.299Z,0.70
2022-12-23T01:44:18.234Z,0.80
2022-12-23T01:46:18.288Z,0.60
2022-12-23T01:47:18.192Z,0.60
2022-12-23T01:48:18.189Z,0.70
2022-12-23T01:49:18.171Z,0.70
2022-12-23T01:50:18.159Z,0.70
2022-12-23T01:51:18.144Z,0.70
2022-12-23T01:52:18.140Z,0.70
2022-12-23T01:53:18.116Z,0.80
2022-12-23T01:54:18.102Z,0.60
2022-12-23T01:55:18.088Z,0.70
2022-12-23T01:56:18.080Z,0.60
2022-12-23T01:57:18.080Z,0.70
2022-12-23T01:58:18.070Z,0.60
2022-12-23T01:59:18.071Z,0.70
2022-12-23T02:00:18.034Z,0.80
2022-12-23T02:01:18.072Z,0.60
2022-12-23T02:02:18.235Z,0.60
2022-12-23T02:03:18.040Z,0.70
2022-12-23T02:04:17.976Z,0.70
2022-12-23T02:05:17.960Z,0.70
2022-12-23T02:06:17.949Z,0.60
2022-12-23T02:07:17.932Z,0.70
2022-12-23T02:08:17.926Z,0.70
2022-12-23T02:09:17.908Z,0.70
2022-12-23T02:10:17.898Z,0.70
2022-12-23T02:11:17.887Z,0.70
2022-12-23T02:12:17.871Z,0.60
2022-12-23T02:13:17.854Z,0.70
2022-12-23T02:14:17.844Z,0.70
2022-12-23T02:15:17.850Z,0.60
2022-12-23T02:16:17.886Z,0.60
2022-12-23T02:17:17.904Z,0.60
2022-12-23T02:18:17.793Z,0.50
2022-12-23T02:19:17.777Z,0.60
2022-12-23T02:20:17.780Z,0.60
2022-12-23T02:21:17.755Z,0.60
2022-12-23T02:22:17.745Z,0.50
2022-12-23T02:23:17.726Z,0.70
2022-12-23T02:24:17.726Z,0.70
2022-12-23T02:25:17.699Z,0.60
2022-12-23T02:26:17.688Z,0.60
2022-12-23T02:28:17.660Z,0.60
2022-12-23T02:29:17.650Z,0.60
2022-12-23T02:30:17.635Z,0.60
2022-12-23T02:31:17.697Z,0.60
2022-12-23T02:32:17.608Z,0.60
2022-12-23T02:33:17.599Z,0.70
2022-12-23T02:34:17.608Z,0.60
2022-12-23T02:35:17.573Z,0.60
2022-12-23T02:36:17.555Z,0.60
2022-12-23T02:37:17.558Z,0.60
2022-12-23T02:38:17.540Z,0.60
2022-12-23T02:39:17.520Z,0.70
2022-12-23T02:40:17.503Z,0.70
2022-12-23T02:41:17.493Z,0.60
2022-12-23T02:42:17.477Z,0.70
2022-12-23T02:43:17.470Z,0.60
2022-12-23T02:44:17.454Z,0.60
2022-12-23T02:45:17.443Z,0.60
2022-12-23T02:46:17.484Z,0.60
2022-12-23T02:47:17.441Z,0.60
2022-12-23T02:48:17.400Z,0.60
2022-12-23T02:49:17.391Z,0.60
2022-12-23T02:50:17.375Z,0.70
2022-12-23T02:51:17.365Z,0.60
2022-12-23T02:52:17.354Z,0.60
2022-12-23T02:53:17.345Z,0.70
2022-12-23T02:54:17.326Z,0.60
2022-12-23T02:55:17.324Z,0.60
2022-12-23T02:56:17.301Z,0.50
2022-12-23T02:57:17.290Z,0.60
2022-12-23T02:58:17.272Z,0.60
2022-12-23T02:59:17.264Z,0.60
2022-12-23T03:00:17.246Z,0.60
2022-12-23T03:01:17.290Z,0.60
2022-12-23T03:02:17.483Z,0.60
2022-12-23T03:03:17.543Z,0.60
2022-12-23T03:04:17.204Z,0.60
2022-12-23T03:05:17.189Z,0.60
2022-12-23T03:06:17.173Z,0.60
2022-12-23T03:07:18.739Z,0.60
2022-12-23T03:08:17.144Z,0.50
2022-12-23T03:09:17.133Z,0.60
2022-12-23T03:10:17.119Z,0.50
2022-12-23T03:11:17.112Z,0.70
2022-12-23T03:12:17.096Z,0.60
2022-12-23T03:13:17.095Z,0.60
2022-12-23T03:14:17.093Z,0.50
2022-12-23T03:15:17.078Z,0.60
2022-12-23T03:16:17.155Z,0.60
2022-12-23T03:17:17.043Z,0.60
2022-12-23T03:18:17.024Z,0.60
2022-12-23T03:19:17.031Z,0.50
2022-12-23T03:20:16.994Z,0.60
2022-12-23T03:21:16.986Z,0.60
2022-12-23T03:22:16.969Z,0.60
2022-12-23T03:23:16.967Z,0.60
2022-12-23T03:24:16.950Z,0.60
2022-12-23T03:25:16.938Z,0.60
2022-12-23T03:26:16.926Z,0.60
2022-12-23T03:27:16.909Z,0.60
2022-12-23T03:28:16.906Z,0.60
2022-12-23T03:29:16.885Z,0.60
2022-12-23T03:30:16.883Z,0.60
2022-12-23T03:31:16.891Z,0.60
2022-12-23T03:32:16.842Z,0.60
2022-12-23T03:33:16.834Z,0.50
2022-12-23T03:34:16.830Z,0.60
2022-12-23T03:35:16.824Z,0.60
2022-12-23T03:36:16.794Z,0.60
2022-12-23T03:37:16.781Z,0.60
2022-12-23T03:38:16.767Z,0.60
2022-12-23T03:39:16.755Z,0.60
2022-12-23T03:40:16.748Z,0.60
2022-12-23T03:41:16.739Z,0.60
2022-12-23T03:42:16.719Z,0.60
2022-12-23T03:43:16.717Z,0.60
2022-12-23T03:44:16.690Z,0.60
2022-12-23T03:45:38.104Z,0.60
2022-12-23T03:46:16.692Z,0.60
2022-12-23T03:47:16.657Z,0.60
2022-12-23T03:48:16.647Z,0.70
2022-12-23T03:49:16.633Z,0.60
2022-12-23T03:50:16.616Z,0.60
2022-12-23T03:51:16.631Z,0.50
2022-12-23T03:52:21.097Z,0.60
2022-12-23T03:53:16.593Z,0.60
2022-12-23T03:54:16.588Z,0.60
2022-12-23T03:55:16.557Z,0.60
2022-12-23T03:56:16.540Z,0.60
2022-12-23T03:57:16.534Z,0.60
2022-12-23T03:58:16.516Z,0.60
2022-12-23T03:59:16.510Z,0.60
2022-12-23T04:00:16.504Z,0.60
2022-12-23T04:01:17.988Z,0.70
2022-12-23T04:02:16.706Z,0.50
2022-12-23T04:03:16.456Z,0.50
2022-12-23T04:04:16.527Z,0.50
2022-12-23T04:05:16.431Z,0.60
2022-12-23T04:06:16.421Z,0.60
2022-12-23T04:07:16.475Z,0.80
2022-12-23T04:08:16.391Z,0.60
2022-12-23T04:09:21.731Z,0.50
2022-12-23T04:10:16.377Z,0.60
2022-12-23T04:11:16.357Z,0.60
2022-12-23T04:12:16.341Z,0.60
2022-12-23T04:13:16.345Z,0.70
2022-12-23T04:14:16.314Z,0.50
2022-12-23T04:15:16.304Z,0.60
2022-12-23T04:16:16.347Z,0.50
2022-12-23T04:17:16.279Z,0.60
2022-12-23T04:18:16.284Z,0.60
2022-12-23T04:19:16.256Z,0.60
2022-12-23T04:20:16.242Z,0.60
2022-12-23T04:21:16.249Z,0.60
2022-12-23T04:22:16.223Z,0.60
2022-12-23T04:23:16.229Z,0.70
2022-12-23T04:24:16.190Z,0.70
2022-12-23T04:25:16.186Z,0.70
2022-12-23T04:26:16.182Z,0.70
2022-12-23T04:27:16.157Z,0.70
2022-12-23T04:28:16.140Z,0.70
2022-12-23T04:29:16.131Z,0.70
2022-12-23T04:30:16.115Z,0.50
2022-12-23T04:31:16.204Z,0.70
2022-12-23T04:32:16.100Z,0.60
2022-12-23T04:33:16.083Z,0.60
2022-12-23T04:34:16.071Z,0.60
2022-12-23T04:35:16.055Z,0.60
2022-12-23T04:36:16.041Z,0.60
2022-12-23T04:37:16.033Z,0.60
2022-12-23T04:38:16.016Z,0.60
2022-12-23T04:39:16.041Z,0.70
2022-12-23T04:40:15.998Z,0.60
2022-12-23T04:41:15.983Z,0.70
2022-12-23T04:42:15.981Z,0.70
2022-12-23T04:43:15.962Z,0.60
2022-12-23T04:44:15.942Z,0.60
2022-12-23T04:45:15.933Z,0.60
2022-12-23T04:47:15.906Z,0.60
2022-12-23T04:48:15.905Z,0.70
2022-12-23T04:49:15.883Z,0.70
2022-12-23T04:50:15.887Z,0.60
2022-12-23T04:51:15.873Z,0.70
2022-12-23T04:52:15.846Z,0.70
2022-12-23T04:53:15.832Z,0.60
2022-12-23T04:54:15.821Z,0.70
2022-12-23T04:55:15.830Z,0.80
2022-12-23T04:56:15.795Z,0.70
2022-12-23T04:57:15.785Z,0.60
2022-12-23T04:58:15.772Z,0.60
2022-12-23T04:59:15.758Z,0.60
2022-12-23T05:00:15.753Z,0.60
2022-12-23T05:01:15.756Z,0.70
2022-12-23T05:02:15.888Z,0.60
2022-12-23T05:03:15.884Z,0.70
2022-12-23T05:04:15.763Z,0.70
2022-12-23T05:05:15.736Z,0.70
2022-12-23T05:06:15.677Z,0.80
2022-12-23T05:07:15.664Z,0.70
2022-12-23T05:08:15.647Z,0.70
2022-12-23T05:09:15.634Z,0.70
2022-12-23T05:10:15.630Z,0.60
2022-12-23T05:11:15.627Z,0.70
2022-12-23T05:12:15.607Z,0.70
2022-12-23T05:13:15.582Z,0.70
2022-12-23T05:14:15.572Z,0.50
2022-12-23T05:15:15.558Z,0.60
2022-12-23T05:16:15.598Z,0.60
2022-12-23T05:17:15.532Z,0.80
2022-12-23T05:18:15.534Z,0.60
2022-12-23T05:19:15.509Z,0.70
2022-12-23T05:20:15.498Z,0.70
2022-12-23T05:21:15.488Z,0.70
2022-12-23T05:22:15.473Z,0.70
2022-12-23T05:23:15.458Z,0.60
2022-12-23T05:24:15.451Z,0.70
2022-12-23T05:25:15.440Z,0.50
2022-12-23T05:26:15.427Z,0.70
2022-12-23T05:27:15.535Z,0.60
2022-12-23T05:28:15.399Z,0.80
2022-12-23T05:29:15.384Z,0.60
2022-12-23T05:30:15.375Z,0.70
2022-12-23T05:31:15.430Z,0.90
2022-12-23T05:32:15.351Z,0.70
2022-12-23T05:33:15.393Z,0.50
2022-12-23T05:34:15.325Z,0.60
2022-12-23T05:35:15.313Z,0.60
2022-12-23T05:36:15.302Z,0.70
2022-12-23T05:37:15.287Z,0.70
2022-12-23T05:38:15.272Z,0.70
2022-12-23T05:39:15.266Z,0.80
2022-12-23T05:40:21.516Z,0.80
2022-12-23T05:41:15.239Z,0.60
2022-12-23T05:42:15.227Z,0.70
2022-12-23T05:43:15.254Z,0.60
2022-12-23T05:44:15.207Z,0.70
2022-12-23T05:45:15.189Z,0.60
2022-12-23T05:46:15.235Z,0.60
2022-12-23T05:47:15.165Z,0.60
2022-12-23T05:48:15.149Z,0.60
2022-12-23T05:49:15.160Z,0.70
2022-12-23T05:50:15.146Z,0.70
2022-12-23T05:51:15.116Z,0.80
2022-12-23T05:52:15.101Z,0.70
2022-12-23T05:53:15.092Z,0.70
2022-12-23T05:54:15.075Z,0.70
2022-12-23T05:55:15.074Z,0.60
2022-12-23T05:56:15.071Z,0.70
2022-12-23T05:57:15.047Z,0.70
2022-12-23T05:58:15.026Z,0.70
2022-12-23T05:59:15.040Z,0.70
2022-12-23T06:00:15.004Z,0.70
2022-12-23T06:01:15.001Z,0.60
2022-12-23T06:02:15.221Z,0.70
2022-12-23T06:03:15.274Z,0.70
2022-12-23T06:04:15.002Z,0.60
2022-12-23T06:05:14.946Z,0.70
2022-12-23T06:06:14.927Z,0.70
2022-12-23T06:07:14.915Z,0.70
2022-12-23T06:08:14.903Z,0.70
2022-12-23T06:09:14.894Z,0.70
2022-12-23T06:10:14.882Z,0.70
2022-12-23T06:11:14.874Z,0.70
2022-12-23T06:12:14.854Z,0.70
2022-12-23T06:13:14.844Z,0.70
2022-12-23T06:14:14.830Z,0.70
2022-12-23T06:15:14.837Z,0.60
2022-12-23T06:16:14.851Z,0.60
2022-12-23T06:17:14.801Z,0.70
2022-12-23T06:18:14.781Z,0.80
2022-12-23T06:19:14.822Z,0.80
2022-12-23T06:20:20.373Z,0.70
2022-12-23T06:21:14.745Z,0.60
2022-12-23T06:22:14.735Z,0.80
2022-12-23T06:23:14.733Z,0.60
2022-12-23T06:24:14.705Z,0.70
2022-12-23T06:25:14.697Z,0.70
2022-12-23T06:26:14.681Z,0.80
2022-12-23T06:27:14.678Z,0.70
2022-12-23T06:28:14.665Z,0.70
2022-12-23T06:29:14.665Z,0.80
2022-12-23T06:30:14.633Z,0.60
2022-12-23T06:31:14.881Z,0.60
2022-12-23T06:32:14.781Z,0.70
2022-12-23T06:33:14.614Z,0.70
2022-12-23T06:34:14.587Z,0.70
2022-12-23T06:35:14.584Z,0.60
2022-12-23T06:36:14.558Z,0.60
2022-12-23T06:37:14.550Z,0.70
2022-12-23T06:38:14.538Z,0.70
2022-12-23T06:39:14.524Z,0.70
2022-12-23T06:40:14.511Z,0.70
2022-12-23T06:41:14.498Z,0.70
2022-12-23T06:42:14.484Z,0.60
2022-12-23T06:43:14.474Z,0.80
2022-12-23T06:44:14.461Z,0.60
2022-12-23T06:45:14.494Z,0.60
2022-12-23T06:46:14.531Z,0.70
2022-12-23T06:47:14.446Z,0.80
2022-12-23T06:48:14.411Z,0.60
2022-12-23T06:49:14.405Z,0.80
2022-12-23T06:50:14.409Z,0.70
2022-12-23T06:51:14.391Z,0.70
2022-12-23T06:52:14.367Z,0.60
2022-12-23T06:53:14.359Z,0.70
2022-12-23T06:54:14.337Z,0.60
2022-12-23T06:55:14.332Z,0.80
2022-12-23T06:56:14.313Z,0.80
2022-12-23T06:57:14.306Z,0.70
2022-12-23T06:58:14.289Z,0.80
2022-12-23T06:59:14.280Z,0.90
2022-12-23T07:00:14.264Z,0.70
2022-12-23T07:01:14.359Z,0.70
2022-12-23T07:02:14.472Z,0.80
2022-12-23T07:03:14.341Z,0.80
2022-12-23T07:04:14.214Z,0.80
2022-12-23T07:05:14.206Z,0.70
2022-12-23T07:06:14.189Z,0.80
2022-12-23T07:07:14.180Z,0.70
2022-12-23T07:08:14.166Z,0.60
2022-12-23T07:09:14.163Z,0.70
2022-12-23T07:10:14.141Z,0.70
2022-12-23T07:11:14.135Z,0.70
2022-12-23T07:12:14.121Z,0.90
2022-12-23T07:13:14.126Z,0.70
2022-12-23T07:14:14.093Z,0.80
2022-12-23T07:15:14.083Z,0.70
2022-12-23T07:16:14.170Z,0.70
2022-12-23T07:17:14.058Z,0.70
2022-12-23T07:18:14.042Z,0.80
2022-12-23T07:19:14.085Z,0.90
2022-12-23T07:20:14.028Z,0.80
2022-12-23T07:21:21.575Z,0.70
2022-12-23T07:22:14.003Z,0.70
2022-12-23T07:23:13.985Z,0.80
2022-12-23T07:24:13.971Z,0.70
2022-12-23T07:25:13.959Z,0.80
2022-12-23T07:26:13.944Z,0.70
2022-12-23T07:27:13.936Z,0.80
2022-12-23T07:28:13.926Z,0.70
2022-12-23T07:29:13.913Z,0.70
2022-12-23T07:30:13.900Z,0.80
2022-12-23T07:31:13.944Z,0.70
2022-12-23T07:32:13.874Z,0.70
2022-12-23T07:33:13.864Z,0.80
2022-12-23T07:34:13.846Z,0.70
2022-12-23T07:35:13.861Z,0.70
2022-12-23T07:36:13.831Z,0.90
2022-12-23T07:37:13.815Z,0.70
2022-12-23T07:38:13.800Z,0.80
2022-12-23T07:39:13.791Z,0.70
2022-12-23T07:40:13.813Z,0.60
2022-12-23T07:41:13.767Z,0.70
2022-12-23T07:42:43.332Z,0.70
2022-12-23T07:43:13.755Z,0.70
2022-12-23T07:44:13.787Z,0.70
2022-12-23T07:45:13.722Z,0.80
2022-12-23T07:46:13.753Z,0.80
2022-12-23T07:47:13.692Z,0.70
2022-12-23T07:48:13.719Z,0.80
2022-12-23T07:49:13.670Z,0.70
2022-12-23T07:50:13.652Z,0.70
2022-12-23T07:51:13.705Z,0.80
2022-12-23T07:52:13.627Z,0.70
2022-12-23T07:53:13.627Z,0.60
2022-12-23T07:54:13.603Z,0.70
2022-12-23T07:55:13.595Z,0.80
2022-12-23T07:56:13.579Z,0.80
2022-12-23T07:57:13.578Z,1.20
2022-12-23T07:58:13.554Z,1.40
2022-12-23T07:59:13.546Z,1.10
2022-12-23T08:00:13.535Z,0.80
2022-12-23T08:01:13.627Z,1.40
2022-12-23T08:02:13.661Z,0.90
2022-12-23T08:03:13.629Z,1.00
2022-12-23T08:04:13.483Z,0.80
2022-12-23T08:05:13.648Z,0.70
2022-12-23T08:06:13.459Z,0.70
2022-12-23T08:07:13.518Z,0.70
2022-12-23T08:08:13.452Z,0.80
2022-12-23T08:09:13.436Z,0.80
2022-12-23T08:10:13.430Z,1.10
2022-12-23T08:11:13.427Z,0.80
2022-12-23T08:12:13.390Z,0.80
2022-12-23T08:13:13.379Z,0.80
2022-12-23T08:14:13.361Z,0.90
2022-12-23T08:15:13.354Z,1.00
2022-12-23T08:16:13.463Z,0.80
2022-12-23T08:17:13.380Z,0.80
2022-12-23T08:18:13.315Z,0.90
2022-12-23T08:19:13.311Z,0.70
2022-12-23T08:20:13.302Z,0.70
2022-12-23T08:21:13.291Z,0.70
2022-12-23T08:22:13.271Z,0.80
2022-12-23T08:23:13.336Z,0.90
2022-12-23T08:24:13.243Z,0.90
2022-12-23T08:25:13.235Z,0.90
2022-12-23T08:26:13.224Z,0.90
2022-12-23T08:27:13.209Z,0.80
2022-12-23T08:28:13.212Z,0.80
2022-12-23T08:29:13.191Z,0.70
2022-12-23T08:30:13.172Z,0.80
2022-12-23T08:31:13.231Z,0.70
2022-12-23T08:32:13.185Z,0.70
2022-12-23T08:33:13.140Z,0.70
2022-12-23T08:34:13.122Z,0.70
2022-12-23T08:35:13.113Z,0.80
2022-12-23T08:36:16.284Z,0.70
2022-12-23T08:37:13.093Z,0.70
2022-12-23T08:38:13.075Z,0.70
2022-12-23T08:39:13.090Z,0.70
2022-12-23T08:40:13.052Z,0.90
2022-12-23T08:41:13.042Z,0.90
2022-12-23T08:42:13.025Z,0.80
2022-12-23T08:43:13.020Z,0.80
2022-12-23T08:44:13.002Z,0.80
2022-12-23T08:45:12.998Z,0.80
2022-12-23T08:46:13.078Z,0.80
2022-12-23T08:47:12.970Z,0.90
2022-12-23T08:48:12.958Z,0.80
2022-12-23T08:49:12.946Z,0.80
2022-12-23T08:50:12.934Z,0.90
2022-12-23T08:51:12.925Z,0.90
2022-12-23T08:52:12.906Z,0.90
2022-12-23T08:53:12.899Z,0.90
2022-12-23T08:54:12.931Z,1.00
2022-12-23T08:55:12.964Z,0.60
2022-12-23T08:56:12.867Z,0.80
2022-12-23T08:57:12.854Z,0.80
2022-12-23T08:58:12.837Z,1.00
2022-12-23T08:59:18.298Z,0.80
2022-12-23T09:00:12.816Z,0.70
2022-12-23T09:01:12.871Z,0.80
2022-12-23T09:02:12.987Z,0.80
2022-12-23T09:03:12.870Z,0.80
2022-12-23T09:04:12.768Z,0.90
2022-12-23T09:05:12.780Z,0.70
2022-12-23T09:06:12.741Z,0.70
2022-12-23T09:07:12.735Z,0.90
2022-12-23T09:08:12.721Z,0.90
2022-12-23T09:09:12.712Z,0.80
2022-12-23T09:10:12.696Z,0.90
2022-12-23T09:11:12.709Z,0.80
2022-12-23T09:12:12.677Z,0.80
2022-12-23T09:13:17.974Z,0.90
2022-12-23T09:14:12.647Z,0.90
2022-12-23T09:15:12.640Z,0.70
2022-12-23T09:16:12.717Z,0.80
2022-12-23T09:17:12.623Z,0.80
2022-12-23T09:18:12.610Z,0.80
2022-12-23T09:19:12.598Z,0.90
2022-12-23T09:20:12.580Z,0.80
2022-12-23T09:21:12.575Z,0.90
2022-12-23T09:22:12.555Z,0.90
2022-12-23T09:23:12.546Z,0.80
2022-12-23T09:24:12.541Z,0.90
2022-12-23T09:25:12.527Z,0.80
2022-12-23T09:26:12.510Z,0.90
2022-12-23T09:27:12.522Z,0.80
2022-12-23T09:28:12.487Z,1.00
2022-12-23T09:29:12.480Z,1.00
2022-12-23T09:30:12.462Z,0.90
2022-12-23T09:31:12.556Z,1.00
2022-12-23T09:32:12.448Z,0.80
2022-12-23T09:33:12.443Z,0.90
2022-12-23T09:34:12.448Z,0.90
2022-12-23T09:35:12.407Z,0.90
2022-12-23T09:36:12.393Z,1.00
2022-12-23T09:37:12.384Z,0.90
2022-12-23T09:38:12.371Z,1.00
2022-12-23T09:39:12.361Z,0.90
2022-12-23T09:40:12.345Z,0.90
2022-12-23T09:41:12.338Z,0.90
2022-12-23T09:42:12.323Z,1.00
2022-12-23T09:43:12.335Z,0.80
2022-12-23T09:44:12.300Z,1.00
2022-12-23T09:45:12.304Z,0.90
2022-12-23T09:46:12.314Z,0.90
2022-12-23T09:47:12.268Z,1.10
2022-12-23T09:48:12.255Z,0.90
2022-12-23T09:49:12.245Z,0.90
2022-12-23T09:50:12.229Z,1.10
2022-12-23T09:51:12.224Z,1.00
2022-12-23T09:52:12.213Z,0.90
2022-12-23T09:53:12.196Z,1.10
2022-12-23T09:54:16.875Z,0.80
2022-12-23T09:55:12.191Z,0.90
2022-12-23T09:56:12.162Z,0.90
2022-12-23T09:57:12.156Z,1.10
2022-12-23T09:58:12.155Z,0.90
2022-12-23T09:59:12.259Z,0.80
2022-12-23T10:00:12.130Z,0.90
2022-12-23T10:01:12.115Z,0.90
2022-12-23T10:02:12.224Z,1.10
2022-12-23T10:03:12.368Z,1.20
2022-12-23T10:04:12.117Z,0.90
2022-12-23T10:05:12.059Z,0.90
2022-12-23T10:06:12.250Z,0.90
2022-12-23T10:07:12.037Z,1.10
2022-12-23T10:08:12.065Z,1.00
2022-12-23T10:09:12.011Z,1.20
2022-12-23T10:10:12.005Z,1.00
2022-12-23T10:11:11.986Z,1.00
2022-12-23T10:12:11.982Z,0.90
2022-12-23T10:13:11.965Z,1.00
2022-12-23T10:14:11.956Z,0.90
2022-12-23T10:15:11.969Z,1.00
2022-12-23T10:16:12.027Z,0.90
2022-12-23T10:17:11.921Z,0.90
2022-12-23T10:18:11.926Z,0.80
2022-12-23T10:19:11.896Z,1.10
2022-12-23T10:20:11.889Z,0.80
2022-12-23T10:21:11.872Z,0.90
2022-12-23T10:22:11.874Z,0.80
2022-12-23T10:23:11.849Z,1.00
2022-12-23T10:24:11.842Z,0.90
2022-12-23T10:25:11.826Z,1.00
2022-12-23T10:26:11.817Z,1.00
2022-12-23T10:27:11.804Z,0.80
2022-12-23T10:28:11.799Z,1.00
2022-12-23T10:29:15.449Z,1.00
2022-12-23T10:30:34.286Z,0.80
2022-12-23T10:31:38.690Z,0.80
2022-12-23T10:32:11.990Z,0.90
2022-12-23T10:33:11.734Z,0.80
2022-12-23T10:34:11.726Z,0.80
2022-12-23T10:35:11.713Z,1.00
2022-12-23T10:36:11.757Z,0.80
2022-12-23T10:37:11.801Z,0.80
2022-12-23T10:38:11.681Z,0.90
2022-12-23T10:39:11.666Z,1.00
2022-12-23T10:40:11.657Z,0.90
2022-12-23T10:41:11.645Z,0.90
2022-12-23T10:42:11.633Z,0.90
2022-12-23T10:43:11.636Z,0.90
2022-12-23T10:44:11.611Z,0.80
2022-12-23T10:45:11.598Z,0.80
2022-12-23T10:46:11.614Z,0.80
2022-12-23T10:47:11.700Z,0.90
2022-12-23T10:48:14.081Z,0.80
2022-12-23T10:49:11.555Z,0.90
2022-12-23T10:50:11.540Z,0.70
2022-12-23T10:51:11.527Z,0.80
2022-12-23T10:52:11.520Z,0.70
2022-12-23T10:53:11.508Z,0.60
2022-12-23T10:54:11.500Z,0.80
2022-12-23T10:55:11.483Z,0.60
2022-12-23T10:56:11.472Z,0.80
2022-12-23T10:57:11.457Z,0.90
2022-12-23T10:58:11.451Z,0.90
2022-12-23T10:59:11.441Z,0.70
2022-12-23T11:00:11.428Z,0.70
2022-12-23T11:01:17.548Z,0.70
2022-12-23T11:02:11.706Z,0.80
2022-12-23T11:03:11.504Z,0.90
2022-12-23T11:04:11.378Z,0.80
2022-12-23T11:05:11.369Z,0.90
2022-12-23T11:06:11.365Z,0.80
2022-12-23T11:07:42.676Z,0.90
2022-12-23T11:08:11.333Z,1.00
2022-12-23T11:10:11.307Z,0.70
2022-12-23T11:11:11.300Z,0.80
2022-12-23T11:12:11.289Z,0.90
2022-12-23T11:13:11.282Z,0.80
2022-12-23T11:14:11.262Z,0.80
2022-12-23T11:15:11.259Z,0.80
2022-12-23T11:16:11.298Z,0.60
2022-12-23T11:17:11.231Z,0.80
2022-12-23T11:18:11.228Z,0.80
2022-12-23T11:19:11.233Z,0.70
2022-12-23T11:20:11.202Z,0.80
2022-12-23T11:21:11.184Z,0.80
2022-12-23T11:22:11.175Z,0.70
2022-12-23T11:23:11.162Z,0.80
2022-12-23T11:24:11.146Z,0.80
2022-12-23T11:25:11.140Z,0.80
2022-12-23T11:26:11.123Z,0.70
2022-12-23T11:27:11.113Z,0.70
2022-12-23T11:28:11.101Z,0.70
2022-12-23T11:29:11.094Z,0.80
2022-12-23T11:30:11.076Z,0.60
2022-12-23T11:31:11.185Z,0.60
2022-12-23T11:32:11.174Z,0.60
2022-12-23T11:33:11.044Z,0.80
2022-12-23T11:34:11.029Z,1.00
2022-12-23T11:35:11.063Z,1.30
2022-12-23T11:36:11.059Z,0.80
2022-12-23T11:37:11.003Z,1.60
2022-12-23T11:38:10.983Z,1.20
2022-12-23T11:39:10.975Z,0.80
2022-12-23T11:40:10.976Z,0.90
2022-12-23T11:41:10.957Z,0.90
2022-12-23T11:42:10.939Z,0.70
2022-12-23T11:43:10.928Z,0.90
2022-12-23T11:44:10.916Z,0.80
2022-12-23T11:45:10.907Z,0.50
2022-12-23T11:46:10.985Z,0.70
2022-12-23T11:47:10.884Z,0.60
2022-12-23T11:48:10.869Z,0.80
2022-12-23T11:49:10.876Z,0.80
2022-12-23T11:50:10.848Z,0.80
2022-12-23T11:51:10.855Z,0.60
2022-12-23T11:52:10.854Z,0.70
2022-12-23T11:53:10.867Z,0.70
2022-12-23T11:54:10.799Z,0.80
2022-12-23T11:55:10.796Z,0.80
2022-12-23T11:56:10.781Z,0.70
2022-12-23T11:57:10.848Z,0.70
2022-12-23T11:58:10.753Z,0.70
2022-12-23T11:59:10.757Z,0.70
2022-12-23T12:00:10.739Z,0.80
2022-12-23T12:01:10.722Z,0.70
2022-12-23T12:02:10.740Z,0.80
2022-12-23T12:03:10.731Z,0.80
2022-12-23T12:04:10.685Z,0.80
2022-12-23T12:05:10.677Z,0.70
2022-12-23T12:06:10.663Z,0.80
2022-12-23T12:07:10.677Z,0.70
2022-12-23T12:08:10.638Z,0.70
2022-12-23T12:09:10.630Z,0.80
2022-12-23T12:10:10.632Z,0.80
2022-12-23T12:11:10.605Z,0.60
2022-12-23T12:12:10.593Z,0.70
2022-12-23T12:13:10.585Z,0.80
2022-12-23T12:14:10.568Z,0.70
2022-12-23T12:15:10.562Z,0.80
2022-12-23T12:16:10.568Z,0.70
2022-12-23T12:17:10.603Z,0.70
2022-12-23T12:18:10.523Z,0.70
2022-12-23T12:19:10.521Z,0.70
2022-12-23T12:20:10.580Z,0.70
2022-12-23T12:21:10.492Z,0.70
2022-12-23T12:22:10.476Z,0.70
2022-12-23T12:23:10.496Z,1.00
2022-12-23T12:24:19.361Z,0.60
2022-12-23T12:25:10.451Z,0.60
2022-12-23T12:26:10.480Z,0.90
2022-12-23T12:27:10.424Z,0.80
2022-12-23T12:28:10.406Z,0.80
2022-12-23T12:29:10.408Z,0.80
2022-12-23T12:30:10.384Z,0.60
2022-12-23T12:31:10.461Z,0.70
2022-12-23T12:32:10.363Z,0.80
2022-12-23T12:33:10.353Z,0.80
2022-12-23T12:34:10.391Z,0.80
2022-12-23T12:35:10.336Z,0.70
2022-12-23T12:36:10.372Z,0.80
2022-12-23T12:37:10.311Z,0.70
2022-12-23T12:38:10.291Z,0.80
2022-12-23T12:39:10.304Z,0.70
2022-12-23T12:40:10.374Z,0.80
2022-12-23T12:41:10.261Z,0.70
2022-12-23T12:42:10.252Z,0.60
2022-12-23T12:43:10.237Z,0.70
2022-12-23T12:44:10.222Z,0.70
2022-12-23T12:45:10.237Z,0.80
2022-12-23T12:46:10.256Z,0.90
2022-12-23T12:47:36.317Z,0.70
2022-12-23T12:48:18.312Z,0.80
2022-12-23T12:49:10.168Z,0.80
2022-12-23T12:50:10.154Z,0.80
2022-12-23T12:51:10.141Z,0.80
2022-12-23T12:52:10.144Z,0.80
2022-12-23T12:53:10.123Z,1.00
2022-12-23T12:54:10.104Z,0.90
2022-12-23T12:55:10.118Z,0.80
2022-12-23T12:56:10.083Z,0.80
2022-12-23T12:57:10.077Z,0.70
2022-12-23T12:58:10.068Z,0.80
2022-12-23T12:59:10.052Z,0.70
2022-12-23T13:00:10.041Z,0.90
2022-12-23T13:01:10.086Z,0.80
2022-12-23T13:02:10.087Z,0.80
2022-12-23T13:03:10.016Z,0.80
2022-12-23T13:04:09.992Z,0.80
2022-12-23T13:05:09.991Z,0.80
2022-12-23T13:06:09.970Z,0.90
2022-12-23T13:07:09.959Z,0.80
2022-12-23T13:08:09.953Z,0.90
2022-12-23T13:09:09.941Z,0.90
2022-12-23T13:10:09.925Z,0.80
2022-12-23T13:11:09.942Z,0.90
2022-12-23T13:12:09.900Z,0.90
2022-12-23T13:13:09.895Z,0.80
2022-12-23T13:14:09.875Z,0.80
2022-12-23T13:15:09.883Z,0.90
2022-12-23T13:16:09.855Z,0.80
2022-12-23T13:17:09.973Z,0.90
2022-12-23T13:18:09.831Z,0.90
2022-12-23T13:19:09.821Z,0.80
2022-12-23T13:20:09.832Z,0.80
2022-12-23T13:21:09.799Z,0.80
2022-12-23T13:22:09.789Z,0.90